NCAR-RAP Real-Time Weather Data

Output produced by METARs form (24 July 2017  08:50 UTC)
found at http://weather.rap.ucar.edu/surface/
 
Conditions at: KMLB observed 24 July 2017  07:53 UTC
Temperature: 26.1°C (79°F)
Dewpoint: 24.4°C (76°F) [RH = 90%]
Pressure (altimeter): 30.01 inches Hg (1016.3 mb)
[Sea-level pressure: 1016.0 mb]
Winds: from the SW (220 degrees) at 3 MPH (3 knots; 1.6 m/s)
Visibility: 10 or more miles (16+ km)
Ceiling: at least 12,000 feet AGL
Clouds: sky clear below 12,000 feet AGL
Present Weather: automated observation with no human augmentation;
there may or may not be significant weather present at this time
KMLB 240753Z AUTO 22003KT 10SM CLR 26/24 A3001 RMK AO2 SLP160 T02610244

Conditions at: KMLB observed 24 July 2017  06:53 UTC
Temperature: 26.1°C (79°F)
Dewpoint: 24.4°C (76°F) [RH = 90%]
Pressure (altimeter): 30.02 inches Hg (1016.7 mb)
[Sea-level pressure: 1016.3 mb]
Winds: from the SW (220 degrees) at 3 MPH (3 knots; 1.6 m/s)
Visibility: 10 or more miles (16+ km)
Ceiling: at least 12,000 feet AGL
Clouds: sky clear below 12,000 feet AGL
Present Weather: automated observation with no human augmentation;
there may or may not be significant weather present at this time
KMLB 240653Z AUTO 22003KT 10SM CLR 26/24 A3002 RMK AO2 RAB35E43 SLP163 P0000 T02610244

Conditions at: KMLB observed 24 July 2017  05:53 UTC
Temperature: 25.6°C (78°F)
Dewpoint: 24.4°C (76°F) [RH = 93%]
Pressure (altimeter): 30.03 inches Hg (1017.0 mb)
[Sea-level pressure: 1017.0 mb]
Winds: from the W (260 degrees) at 3 MPH (3 knots; 1.6 m/s)
Visibility: 10 or more miles (16+ km)
Ceiling: at least 12,000 feet AGL
Clouds: sky clear below 12,000 feet AGL
Present Weather: automated observation with no human augmentation;
there may or may not be significant weather present at this time
KMLB 240553Z AUTO 26003KT 10SM CLR 26/24 A3003 RMK AO2 SLP170 60000 T02560244 10278 20256 58003

Conditions at: KMLB observed 24 July 2017  04:53 UTC
Temperature: 26.1°C (79°F)
Dewpoint: 24.4°C (76°F) [RH = 90%]
Pressure (altimeter): 30.04 inches Hg (1017.4 mb)
[Sea-level pressure: 1017.1 mb]
Winds: from the SSW (210 degrees) at 3 MPH (3 knots; 1.6 m/s)
Visibility: 10 or more miles (16+ km)
Ceiling: at least 12,000 feet AGL
Clouds: sky clear below 12,000 feet AGL
Present Weather: automated observation with no human augmentation;
there may or may not be significant weather present at this time
KMLB 240453Z AUTO 21003KT 10SM CLR 26/24 A3004 RMK AO2 SLP171 T02610244 403220244

Conditions at: KMLB observed 24 July 2017  03:53 UTC
Temperature: 26.1°C (79°F)
Dewpoint: 24.4°C (76°F) [RH = 90%]
Pressure (altimeter): 30.06 inches Hg (1018.0 mb)
[Sea-level pressure: 1017.7 mb]
Winds: calm
Visibility: 10 or more miles (16+ km)
Ceiling: at least 12,000 feet AGL
Clouds: sky clear below 12,000 feet AGL
Present Weather: automated observation with no human augmentation;
there may or may not be significant weather present at this time
KMLB 240353Z AUTO 00000KT 10SM CLR 26/24 A3006 RMK AO2 SLP177 T02610244

Conditions at: KMLB observed 24 July 2017  02:53 UTC
Temperature: 26.7°C (80°F)
Dewpoint: 23.9°C (75°F) [RH = 85%]
Pressure (altimeter): 30.04 inches Hg (1017.4 mb)
[Sea-level pressure: 1017.3 mb]
Winds: from the W (260 degrees) at 3 MPH (3 knots; 1.6 m/s)
Visibility: 10 or more miles (16+ km)
Ceiling: at least 12,000 feet AGL
Clouds: sky clear below 12,000 feet AGL
Present Weather: no significant weather observed at this time
KMLB 240253Z 26003KT 10SM CLR 27/24 A3004 RMK AO2 RAE0157 SLP173 P0000 60000 T02670239 53013

Conditions at: KMLB observed 24 July 2017  01:53 UTC
Temperature: 26.7°C (80°F)
Dewpoint: 23.9°C (75°F) [RH = 85%]
Pressure (altimeter): 29.99 inches Hg (1015.7 mb)
[Sea-level pressure: 1015.6 mb]
Winds: from the SE (140 degrees) at 5 MPH (4 knots; 2.1 m/s)
Visibility: 10 or more miles (16+ km)
Ceiling: at least 12,000 feet AGL
Clouds: sky clear below 12,000 feet AGL
Present Weather: -RA  (light rain)
KMLB 240153Z 14004KT 10SM -RA CLR 27/24 A2999 RMK AO2 RAB01E11B38 SLP156 P0000 T02670239

Conditions at: KMLB observed 24 July 2017  00:53 UTC
Temperature: 26.7°C (80°F)
Dewpoint: 23.3°C (74°F) [RH = 82%]
Pressure (altimeter): 29.99 inches Hg (1015.7 mb)
[Sea-level pressure: 1015.5 mb]
Winds: from the NNW (330 degrees) at 3 MPH (3 knots; 1.6 m/s)
Visibility: 10 or more miles (16+ km)
Ceiling: at least 12,000 feet AGL
Clouds: sky clear below 12,000 feet AGL
Present Weather: no significant weather observed at this time
KMLB 240053Z 33003KT 10SM CLR 27/23 A2999 RMK AO2 SLP155 T02670233

Conditions at: KMLB observed 23 July 2017  23:53 UTC
Temperature: 27.2°C (81°F)
Dewpoint: 23.9°C (75°F) [RH = 82%]
Pressure (altimeter): 30.01 inches Hg (1016.3 mb)
[Sea-level pressure: 1016.0 mb]
Winds: calm
Visibility: 10 or more miles (16+ km)
Ceiling: at least 12,000 feet AGL
Clouds: sky clear below 12,000 feet AGL
Present Weather: no significant weather observed at this time
KMLB 232353Z 00000KT 10SM CLR 27/24 A3001 RMK AO2 SLP160 T02720239 10300 20267 56014

Conditions at: KMLB observed 23 July 2017  22:53 UTC
Temperature: 27.8°C (82°F)
Dewpoint: 23.3°C (74°F) [RH = 77%]
Pressure (altimeter): 30.01 inches Hg (1016.3 mb)
[Sea-level pressure: 1016.1 mb]
Winds: from the N (10 degrees) at 3 MPH (3 knots; 1.6 m/s)
Visibility: 10 or more miles (16+ km)
Ceiling: at least 12,000 feet AGL
Clouds: sky clear below 12,000 feet AGL
Present Weather: no significant weather observed at this time
KMLB 232253Z 01003KT 10SM CLR 28/23 A3001 RMK AO2 SLP161 T02780233

Conditions at: KMLB observed 23 July 2017  21:53 UTC
Temperature: 27.2°C (81°F)
Dewpoint: 23.3°C (74°F) [RH = 79%]
Pressure (altimeter): 30.01 inches Hg (1016.3 mb)
[Sea-level pressure: 1016.2 mb]
Winds: from the NE (50 degrees) at 5 MPH (4 knots; 2.1 m/s)
Visibility: 10 or more miles (16+ km)
Ceiling: at least 12,000 feet AGL
Clouds: sky clear below 12,000 feet AGL
Present Weather: no significant weather observed at this time
KMLB 232153Z 05004KT 10SM CLR 27/23 A3001 RMK AO2 SLP162 T02720233

Conditions at: KMLB observed 23 July 2017  21:27 UTC
Temperature: 26.7°C (80°F)
Dewpoint: 23.3°C (74°F) [RH = 82%]
Pressure (altimeter): 30.02 inches Hg (1016.7 mb)
Winds: from the NE (40 degrees) at 3 MPH (3 knots; 1.6 m/s)
Visibility: 10 or more miles (16+ km)
Ceiling: at least 12,000 feet AGL
Clouds: sky clear below 12,000 feet AGL
Present Weather: no significant weather observed at this time
KMLB 232127Z 04003KT 10SM CLR 27/23 A3002 RMK AO2 T02670233

Conditions at: KMLB observed 23 July 2017  21:00 UTC
Temperature: 27.2°C (81°F)
Dewpoint: 22.8°C (73°F) [RH = 77%]
Pressure (altimeter): 30.04 inches Hg (1017.4 mb)
Winds: from the NNW (340 degrees) at 10 MPH (9 knots; 4.7 m/s)
Visibility: 10 or more miles (16+ km)
Ceiling: 3300 feet AGL
Clouds: scattered clouds at 2500 feet AGL
broken clouds at 3300 feet AGL
Present Weather: no significant weather observed at this time
KMLB 232100Z 34009KT 10SM SCT025 BKN033 27/23 A3004 RMK AO2 T02720228

Conditions at: KMLB observed 23 July 2017  20:53 UTC
Temperature: 27.8°C (82°F)
Dewpoint: 22.8°C (73°F) [RH = 74%]
Pressure (altimeter): 30.05 inches Hg (1017.7 mb)
[Sea-level pressure: 1017.4 mb]
Winds: from the NNW (330 degrees) at 8 MPH (7 knots; 3.6 m/s)
Visibility: 10 or more miles (16+ km)
Ceiling: 2500 feet AGL
Clouds: broken clouds at 2500 feet AGL
Present Weather: VCTS  (thunderstorm in vicinity)
KMLB 232053Z 33007KT 10SM VCTS BKN025 28/23 A3005 RMK AO2 LTG DSNT N SLP174 T02780228 55001

Conditions at: KMLB observed 23 July 2017  20:08 UTC
Temperature: 28.3°C (83°F)
Dewpoint: 23.3°C (74°F) [RH = 74%]
Pressure (altimeter): 30.04 inches Hg (1017.4 mb)
Winds: from the NNE (30 degrees) at 7 MPH (6 knots; 3.1 m/s)
Visibility: 10 or more miles (16+ km)
Ceiling: at least 12,000 feet AGL
Clouds: sky clear below 12,000 feet AGL
Present Weather: VCTS  (thunderstorm in vicinity)
KMLB 232008Z 03006KT 10SM VCTS CLR 28/23 A3004 RMK AO2 LTG DSNT NW T02830233

Conditions at: KMLB observed 23 July 2017  19:53 UTC
Temperature: 28.9°C (84°F)
Dewpoint: 23.3°C (74°F) [RH = 72%]
Pressure (altimeter): 30.03 inches Hg (1017.0 mb)
[Sea-level pressure: 1016.9 mb]
Winds: from the NNE (30 degrees) at 9 MPH (8 knots; 4.2 m/s)
Visibility: 10 or more miles (16+ km)
Ceiling: at least 12,000 feet AGL
Clouds: sky clear below 12,000 feet AGL
Present Weather: no significant weather observed at this time
KMLB 231953Z 03008KT 10SM CLR 29/23 A3003 RMK AO2 LTG DSNT SE AND W AND NW SLP169 T02890233

Conditions at: KMLB observed 23 July 2017  18:53 UTC
Temperature: 30.0°C (86°F)
Dewpoint: 24.4°C (76°F) [RH = 72%]
Pressure (altimeter): 30.06 inches Hg (1018.0 mb)
[Sea-level pressure: 1017.7 mb]
Winds: from the NNE (20 degrees) at 3 MPH (3 knots; 1.6 m/s)
Visibility: 10 or more miles (16+ km)
Ceiling: at least 12,000 feet AGL
Clouds: sky clear below 12,000 feet AGL
Present Weather: no significant weather observed at this time
KMLB 231853Z 02003KT 10SM CLR 30/24 A3006 RMK AO2 LTG DSNT NE AND SE SLP177 T03000244

Conditions at: KMLB observed 23 July 2017  18:18 UTC
Temperature: 29.4°C (85°F)
Dewpoint: 24.4°C (76°F) [RH = 75%]
Pressure (altimeter): 30.06 inches Hg (1018.0 mb)
Winds: from the NNW (340 degrees) at 3 MPH (3 knots; 1.6 m/s)
Visibility: 10 or more miles (16+ km)
Ceiling: at least 12,000 feet AGL
Clouds: sky clear below 12,000 feet AGL
Present Weather: no significant weather observed at this time
KMLB 231818Z 34003KT 10SM CLR 29/24 A3006 RMK AO2 LTG DSNT N-SE T02940244

Conditions at: KMLB observed 23 July 2017  17:53 UTC
Temperature: 28.3°C (83°F)
Dewpoint: 23.3°C (74°F) [RH = 74%]
Pressure (altimeter): 30.05 inches Hg (1017.7 mb)
[Sea-level pressure: 1017.5 mb]
Winds: from the W (280 degrees) at 6 MPH (5 knots; 2.6 m/s)
Visibility: 10 or more miles (16+ km)
Ceiling: at least 12,000 feet AGL
Clouds: few clouds at 3000 feet AGL
Present Weather: VCTS  (thunderstorm in vicinity)
KMLB 231753Z 28005KT 10SM VCTS FEW030 28/23 A3005 RMK AO2 LTG DSNT ALQDS TSB13E28B31E46 SLP175 T02830233 10322 20261 56004

Conditions at: KMLB observed 23 July 2017  17:19 UTC
Temperature: 31.1°C (88°F)
Dewpoint: 23.3°C (74°F) [RH = 63%]
Pressure (altimeter): 30.05 inches Hg (1017.7 mb)
Winds: from the SW (230 degrees) at 8 MPH (7 knots; 3.6 m/s)
Visibility: 10 or more miles (16+ km)
Ceiling: 10000 feet AGL
Clouds: scattered clouds at 3400 feet AGL
scattered clouds at 4100 feet AGL
broken clouds at 10000 feet AGL
Present Weather: TS  (thunderstorm)
KMLB 231719Z 23007KT 10SM TS SCT034 SCT041 BKN100 31/23 A3005 RMK AO2 LTG DSNT N AND NW TSB13 T03110233

Conditions at: KMLB observed 23 July 2017  16:53 UTC
Temperature: 32.2°C (90°F)
Dewpoint: 23.9°C (75°F) [RH = 62%]
Pressure (altimeter): 30.05 inches Hg (1017.7 mb)
[Sea-level pressure: 1017.5 mb]
Winds: from the SW (230 degrees) at 10 MPH (9 knots; 4.7 m/s)
Visibility: 10 or more miles (16+ km)
Ceiling: at least 12,000 feet AGL
Clouds: scattered clouds at 3300 feet AGL
Present Weather: no significant weather observed at this time
KMLB 231653Z 23009KT 10SM SCT033 32/24 A3005 RMK AO2 LTG DSNT N AND NW SLP175 T03220239

Conditions at: KMLB observed 23 July 2017  15:53 UTC
Temperature: 32.2°C (90°F)
Dewpoint: 24.4°C (76°F) [RH = 64%]
Pressure (altimeter): 30.06 inches Hg (1018.0 mb)
[Sea-level pressure: 1017.8 mb]
Winds: from the S (180 degrees) at 8 MPH (7 knots; 3.6 m/s)
Visibility: 10 or more miles (16+ km)
Ceiling: at least 12,000 feet AGL
Clouds: scattered clouds at 2900 feet AGL
Present Weather: no significant weather observed at this time
KMLB 231553Z 18007KT 10SM SCT029 32/24 A3006 RMK AO2 SLP178 T03220244

Conditions at: KMLB observed 23 July 2017  14:53 UTC
Temperature: 30.6°C (87°F)
Dewpoint: 25.0°C (77°F) [RH = 72%]
Pressure (altimeter): 30.06 inches Hg (1018.0 mb)
[Sea-level pressure: 1017.8 mb]
Winds: from the WSW (240 degrees) at 8 MPH (7 knots; 3.6 m/s)
Visibility: 10 or more miles (16+ km)
Ceiling: at least 12,000 feet AGL
Clouds: sky clear below 12,000 feet AGL
Present Weather: no significant weather observed at this time
KMLB 231453Z COR 24007KT 10SM CLR 31/25 A3006 RMK AO2 SLP178 T03060250 50006

Conditions at: KMLB observed 23 July 2017  13:53 UTC
Temperature: 28.3°C (83°F)
Dewpoint: 24.4°C (76°F) [RH = 79%]
Pressure (altimeter): 30.07 inches Hg (1018.4 mb)
[Sea-level pressure: 1018.0 mb]
Winds: from the SSW (200 degrees) at 3 MPH (3 knots; 1.6 m/s)
Visibility: 5 miles (8 km)
Ceiling: at least 12,000 feet AGL
Clouds: sky clear below 12,000 feet AGL
Present Weather: HZ  (haze)
KMLB 231353Z 20003KT 5SM HZ CLR 28/24 A3007 RMK AO2 SLP180 T02830244

Conditions at: KMLB observed 23 July 2017  12:53 UTC
Temperature: 27.2°C (81°F)
Dewpoint: 23.9°C (75°F) [RH = 82%]
Pressure (altimeter): 30.05 inches Hg (1017.7 mb)
[Sea-level pressure: 1017.6 mb]
Winds: from the S (180 degrees) at 5 MPH (4 knots; 2.1 m/s)
Visibility: 10 or more miles (16+ km)
Ceiling: at least 12,000 feet AGL
Clouds: sky clear below 12,000 feet AGL
Present Weather: no significant weather observed at this time
KMLB 231253Z 18004KT 10SM CLR 27/24 A3005 RMK AO2 SLP176 T02720239

Conditions at: KMLB observed 23 July 2017  11:53 UTC
Temperature: 25.6°C (78°F)
Dewpoint: 23.3°C (74°F) [RH = 87%]
Pressure (altimeter): 30.04 inches Hg (1017.4 mb)
[Sea-level pressure: 1017.3 mb]
Winds: calm
Visibility: 10 or more miles (16+ km)
Ceiling: at least 12,000 feet AGL
Clouds: sky clear below 12,000 feet AGL
Present Weather: no significant weather observed at this time
KMLB 231153Z 00000KT 10SM CLR 26/23 A3004 RMK AO2 SLP173 70170 T02560233 10256 20244 51010

Conditions at: KMLB observed 23 July 2017  10:53 UTC
Temperature: 24.4°C (76°F)
Dewpoint: 23.3°C (74°F) [RH = 94%]
Pressure (altimeter): 30.04 inches Hg (1017.4 mb)
[Sea-level pressure: 1017.0 mb]
Winds: from the SSE (160 degrees) at 3 MPH (3 knots; 1.6 m/s)
Visibility: 10 or more miles (16+ km)
Ceiling: at least 12,000 feet AGL
Clouds: sky clear below 12,000 feet AGL
Present Weather: no significant weather observed at this time
KMLB 231053Z 16003KT 10SM CLR 24/23 A3004 RMK AO2 SLP170 T02440233

Conditions at: KMLB observed 23 July 2017  09:53 UTC
Temperature: 24.4°C (76°F)
Dewpoint: 22.8°C (73°F) [RH = 91%]
Pressure (altimeter): 30.03 inches Hg (1017.0 mb)
[Sea-level pressure: 1016.7 mb]
Winds: from the SSW (210 degrees) at 3 MPH (3 knots; 1.6 m/s)
Visibility: 10 or more miles (16+ km)
Ceiling: at least 12,000 feet AGL
Clouds: sky clear below 12,000 feet AGL
Present Weather: no significant weather observed at this time
KMLB 230953Z 21003KT 10SM CLR 24/23 A3003 RMK AO2 SLP167 T02440228

Conditions at: KMLB observed 23 July 2017  08:53 UTC
Temperature: 24.4°C (76°F)
Dewpoint: 22.8°C (73°F) [RH = 91%]
Pressure (altimeter): 30.01 inches Hg (1016.3 mb)
[Sea-level pressure: 1016.3 mb]
Winds: from the S (190 degrees) at 6 MPH (5 knots; 2.6 m/s)
Visibility: 10 or more miles (16+ km)
Ceiling: at least 12,000 feet AGL
Clouds: sky clear below 12,000 feet AGL
Present Weather: automated observation with no human augmentation;
there may or may not be significant weather present at this time
KMLB 230853Z AUTO 19005KT 10SM CLR 24/23 A3001 RMK AO2 SLP163 T02440228 58013

Conditions at: KMLB observed 23 July 2017  07:53 UTC
Temperature: 24.4°C (76°F)
Dewpoint: 22.2°C (72°F) [RH = 88%]
Pressure (altimeter): 30.03 inches Hg (1017.0 mb)
[Sea-level pressure: 1016.7 mb]
Winds: from the SSW (210 degrees) at 6 MPH (5 knots; 2.6 m/s)
Visibility: 10 or more miles (16+ km)
Ceiling: at least 12,000 feet AGL
Clouds: sky clear below 12,000 feet AGL
Present Weather: automated observation with no human augmentation;
there may or may not be significant weather present at this time
KMLB 230753Z AUTO 21005KT 10SM CLR 24/22 A3003 RMK AO2 SLP167 T02440222

Conditions at: KMLB observed 23 July 2017  06:53 UTC
Temperature: 24.4°C (76°F)
Dewpoint: 23.3°C (74°F) [RH = 94%]
Pressure (altimeter): 30.05 inches Hg (1017.7 mb)
[Sea-level pressure: 1017.4 mb]
Winds: from the SSW (200 degrees) at 5 MPH (4 knots; 2.1 m/s)
Visibility: 10 or more miles (16+ km)
Ceiling: at least 12,000 feet AGL
Clouds: sky clear below 12,000 feet AGL
Present Weather: automated observation with no human augmentation;
there may or may not be significant weather present at this time
KMLB 230653Z AUTO 20004KT 10SM CLR 24/23 A3005 RMK AO2 SLP174 T02440233

Conditions at: KMLB observed 23 July 2017  05:53 UTC
Temperature: 24.4°C (76°F)
Dewpoint: 23.3°C (74°F) [RH = 94%]
Pressure (altimeter): 30.05 inches Hg (1017.7 mb)
[Sea-level pressure: 1017.6 mb]
Winds: calm
Visibility: 10 or more miles (16+ km)
Ceiling: at least 12,000 feet AGL
Clouds: sky clear below 12,000 feet AGL
Present Weather: automated observation with no human augmentation;
there may or may not be significant weather present at this time
KMLB 230553Z AUTO 00000KT 10SM CLR 24/23 A3005 RMK AO2 SLP176 60000 T02440233 10250 20239 58001

Conditions at: KMLB observed 23 July 2017  04:53 UTC
Temperature: 24.4°C (76°F)
Dewpoint: 23.3°C (74°F) [RH = 94%]
Pressure (altimeter): 30.06 inches Hg (1018.0 mb)
[Sea-level pressure: 1017.8 mb]
Winds: from the SSW (210 degrees) at 3 MPH (3 knots; 1.6 m/s)
Visibility: 10 or more miles (16+ km)
Ceiling: at least 12,000 feet AGL
Clouds: sky clear below 12,000 feet AGL
Present Weather: automated observation with no human augmentation;
there may or may not be significant weather present at this time
KMLB 230453Z AUTO 21003KT 10SM CLR 24/23 A3006 RMK AO2 SLP178 T02440233 403440228

Conditions at: KMLB observed 23 July 2017  03:53 UTC
Temperature: 24.4°C (76°F)
Dewpoint: 23.3°C (74°F) [RH = 94%]
Pressure (altimeter): 30.06 inches Hg (1018.0 mb)
[Sea-level pressure: 1017.9 mb]
Winds: from the SSW (210 degrees) at 3 MPH (3 knots; 1.6 m/s)
Visibility: 10 or more miles (16+ km)
Ceiling: at least 12,000 feet AGL
Clouds: sky clear below 12,000 feet AGL
Present Weather: no significant weather observed at this time
KMLB 230353Z 21003KT 10SM CLR 24/23 A3006 RMK AO2 SLP179 T02440233

Conditions at: KMLB observed 23 July 2017  02:53 UTC
Temperature: 23.9°C (75°F)
Dewpoint: 22.8°C (73°F) [RH = 94%]
Pressure (altimeter): 30.06 inches Hg (1018.0 mb)
[Sea-level pressure: 1017.7 mb]
Winds: calm
Visibility: 10 or more miles (16+ km)
Ceiling: at least 12,000 feet AGL
Clouds: sky clear below 12,000 feet AGL
Present Weather: no significant weather observed at this time
KMLB 230253Z 00000KT 10SM CLR 24/23 A3006 RMK AO2 SLP177 60000 T02390228 51004

Conditions at: KMLB observed 23 July 2017  01:53 UTC
Temperature: 24.4°C (76°F)
Dewpoint: 23.3°C (74°F) [RH = 94%]
Pressure (altimeter): 30.05 inches Hg (1017.7 mb)
[Sea-level pressure: 1017.5 mb]
Winds: calm
Visibility: 10 or more miles (16+ km)
Ceiling: at least 12,000 feet AGL
Clouds: sky clear below 12,000 feet AGL
Present Weather: no significant weather observed at this time
KMLB 230153Z 00000KT 10SM CLR 24/23 A3005 RMK AO2 SLP175 T02440233

Conditions at: KMLB observed 23 July 2017  00:53 UTC
Temperature: 24.4°C (76°F)
Dewpoint: 23.3°C (74°F) [RH = 94%]
Pressure (altimeter): 30.06 inches Hg (1018.0 mb)
[Sea-level pressure: 1017.9 mb]
Winds: from the SE (140 degrees) at 5 MPH (4 knots; 2.1 m/s)
Visibility: 10 or more miles (16+ km)
Ceiling: at least 12,000 feet AGL
Clouds: sky clear below 12,000 feet AGL
Present Weather: no significant weather observed at this time
KMLB 230053Z 14004KT 10SM CLR 24/23 A3006 RMK AO2 RAE2358 SLP179 P0000 T02440233

Conditions at: KMLB observed 22 July 2017  23:53 UTC
Temperature: 24.4°C (76°F)
Dewpoint: 22.2°C (72°F) [RH = 88%]
Pressure (altimeter): 30.04 inches Hg (1017.4 mb)
[Sea-level pressure: 1017.3 mb]
Winds: from the NNW (330 degrees) at 5 MPH (4 knots; 2.1 m/s)
Visibility: 10 or more miles (16+ km)
Ceiling: 11000 feet AGL
Clouds: few clouds at 7000 feet AGL
scattered clouds at 8500 feet AGL
broken clouds at 11000 feet AGL
Present Weather: -RA  (light rain)
KMLB 222353Z 33004KT 10SM -RA FEW070 SCT085 BKN110 24/22 A3004 RMK AO2 SLP173 P0002 60170 T02440222 10333 20228 58008

Conditions at: KMLB observed 22 July 2017  22:53 UTC
Temperature: 24.4°C (76°F)
Dewpoint: 23.3°C (74°F) [RH = 94%]
Pressure (altimeter): 30.07 inches Hg (1018.4 mb)
[Sea-level pressure: 1018.0 mb]
Winds: from the S (170 degrees) at 6 MPH (5 knots; 2.6 m/s)
Visibility: 10 or more miles (16+ km)
Ceiling: at least 12,000 feet AGL
Clouds: scattered clouds at 11000 feet AGL
Present Weather: -RA  (light rain)
KMLB 222253Z 17005KT 10SM -RA SCT110 24/23 A3007 RMK AO2 SLP180 P0005 T02440233

Conditions at: KMLB observed 22 July 2017  21:53 UTC
Temperature: 24.4°C (76°F)
Dewpoint: 22.8°C (73°F) [RH = 91%]
Pressure (altimeter): 30.07 inches Hg (1018.4 mb)
[Sea-level pressure: 1018.3 mb]
Winds: from the NNE (20 degrees) at 5 MPH (4 knots; 2.1 m/s)
Visibility: 6 miles (10 km)
Ceiling: 11000 feet AGL
Clouds: broken clouds at 11000 feet AGL
Present Weather: -RA BR  (light rain, mist)
KMLB 222153Z 02004KT 6SM -RA BR BKN110 24/23 A3007 RMK AO2 RAB01 TSB12E27 SLP183 P0004 T02440228

Conditions at: KMLB observed 22 July 2017  21:44 UTC
Temperature: 23.9°C (75°F)
Dewpoint: 22.8°C (73°F) [RH = 94%]
Pressure (altimeter): 30.07 inches Hg (1018.4 mb)
Winds: from the NE (50 degrees) at 5 MPH (4 knots; 2.1 m/s)
Visibility: 5 miles (8 km)
Ceiling: 11000 feet AGL
Clouds: broken clouds at 11000 feet AGL
Present Weather: VCTS -RA BR  (thunderstorm in vicinity, light rain, mist)
KMLB 222144Z 05004KT 5SM VCTS -RA BR BKN110 24/23 A3007 RMK AO2 LTG DSNT N-SE RAB01 TSB12E27 P0003 T02390228

Conditions at: KMLB observed 22 July 2017  21:33 UTC
Temperature: 23.9°C (75°F)
Dewpoint: 22.8°C (73°F) [RH = 94%]
Pressure (altimeter): 30.08 inches Hg (1018.7 mb)
Winds: calm
Visibility: 6 miles (10 km)
Ceiling: 11000 feet AGL
Clouds: broken clouds at 11000 feet AGL
Present Weather: -RA BR  (light rain, mist)
KMLB 222133Z 00000KT 6SM -RA BR BKN110 24/23 A3008 RMK AO2 LTG DSNT ALQDS RAB01 TSB12E27 P0002 T02390228

Conditions at: KMLB observed 22 July 2017  21:18 UTC
Temperature: 23.9°C (75°F)
Dewpoint: 22.8°C (73°F) [RH = 94%]
Pressure (altimeter): 30.07 inches Hg (1018.4 mb)
Winds: from the SE (130 degrees) at 3 MPH (3 knots; 1.6 m/s)
Visibility: 10 or more miles (16+ km)
Ceiling: 11000 feet AGL
Clouds: broken clouds at 11000 feet AGL
Present Weather: -TSRA  (light rain associated with thunderstorm(s))
KMLB 222118Z 13003KT 10SM -TSRA BKN110 24/23 A3007 RMK AO2 LTG DSNT ALQDS RAB01 TSB12 P0001 T02390228

Conditions at: KMLB observed 22 July 2017  21:00 UTC
Temperature: 23.3°C (74°F)
Dewpoint: 22.2°C (72°F) [RH = 94%]
Pressure (altimeter): 30.06 inches Hg (1018.0 mb)
Winds: from the E (100 degrees) at 7 MPH (6 knots; 3.1 m/s)
Visibility: 10 or more miles (16+ km)
Ceiling: 12000 feet AGL
Clouds: scattered clouds at 10000 feet AGL
broken clouds at 12000 feet AGL
Present Weather: VCTS  (thunderstorm in vicinity)
KMLB 222100Z 10006KT 10SM VCTS SCT100 BKN120 23/22 A3006 RMK AO2 LTG DSNT ALQDS T02330222

Conditions at: KMLB observed 22 July 2017  20:53 UTC
Temperature: 23.3°C (74°F)
Dewpoint: 22.2°C (72°F) [RH = 94%]
Pressure (altimeter): 30.07 inches Hg (1018.4 mb)
[Sea-level pressure: 1018.1 mb]
Winds: from the ENE (70 degrees) at 5 MPH (4 knots; 2.1 m/s)
Visibility: 10 or more miles (16+ km)
Ceiling: 12000 feet AGL
Clouds: few clouds at 700 feet AGL
scattered clouds at 10000 feet AGL
broken clouds at 12000 feet AGL
Present Weather: no significant weather observed at this time
KMLB 222053Z COR 07004KT 10SM FEW007 SCT100 BKN120 23/22 A3007 RMK AO2 LTG DSNT ALQDS RAE52 TSE38 PRESFR SLP181 P0050 60159 T02330222 50001

Conditions at: KMLB observed 22 July 2017  20:41 UTC
Temperature: 23.3°C (74°F)
Dewpoint: 22.2°C (72°F) [RH = 94%]
Pressure (altimeter): 30.09 inches Hg (1019.0 mb)
Winds: from the NNE (20 degrees) at 3 MPH (3 knots; 1.6 m/s)
Visibility: 2.00 miles (3.22 km)
Ceiling: 12000 feet AGL
Clouds: few clouds at 700 feet AGL
scattered clouds at 5500 feet AGL
broken clouds at 12000 feet AGL
Present Weather: -RA BR  (light rain, mist)
KMLB 222041Z 02003KT 2SM -RA BR FEW007 SCT055 BKN120 23/22 A3009 RMK AO2 LTG DSNT ALQDS TSE38 P0050 T02330222

Conditions at: KMLB observed 22 July 2017  20:31 UTC
Temperature: 23.3°C (74°F)
Dewpoint: 22.8°C (73°F) [RH = 97%]
Pressure (altimeter): 30.10 inches Hg (1019.4 mb)
Winds: calm
Visibility: 2.00 miles (3.22 km)
Ceiling: 4300 feet AGL
Clouds: few clouds at 700 feet AGL
broken clouds at 4300 feet AGL
overcast cloud deck at 12000 feet AGL
Present Weather: TSRA BR  (rain associated with thunderstorm(s), mist)
KMLB 222031Z 00000KT 2SM TSRA BR FEW007 BKN043 OVC120 23/23 A3010 RMK AO2 LTG DSNT ALQDS P0050 T02330228

Conditions at: KMLB observed 22 July 2017  20:23 UTC
Temperature: 23.3°C (74°F)
Dewpoint: 22.2°C (72°F) [RH = 94%]
Pressure (altimeter): 30.10 inches Hg (1019.4 mb)
Winds: variable direction winds at 7 MPH (6 knots; 3.1 m/s)
Visibility: 2.00 miles (3.22 km)
Ceiling: 4100 feet AGL
Clouds: overcast cloud deck at 4100 feet AGL
Present Weather: +TSRA BR  (heavy rain associated with thunderstorm(s), mist)
KMLB 222023Z VRB06KT 2SM +TSRA BR OVC041 23/22 A3010 RMK AO2 LTG DSNT ALQDS P0048 T02330222

Conditions at: KMLB observed 22 July 2017  20:00 UTC
Temperature: 23.3°C (74°F)
Dewpoint: 21.7°C (71°F) [RH = 91%]
Pressure (altimeter): 30.12 inches Hg (1020.1 mb)
Winds: from the W (270 degrees) at 15 MPH (13 knots; 6.8 m/s)
gusting to 28 MPH (24 knots; 12.5 m/s)
Visibility: 2.00 miles (3.22 km)
Ceiling: 1600 feet AGL
Clouds: broken clouds at 1600 feet AGL
overcast cloud deck at 5500 feet AGL
Present Weather: +TSRA BR  (heavy rain associated with thunderstorm(s), mist)
KMLB 222000Z 27013G24KT 2SM +TSRA BR BKN016 OVC055 23/22 A3012 RMK AO2 LTG DSNT ALQDS P0014 T02330217

Conditions at: KMLB observed 22 July 2017  19:53 UTC
Temperature: 23.3°C (74°F)
Dewpoint: 21.7°C (71°F) [RH = 91%]
Pressure (altimeter): 30.10 inches Hg (1019.4 mb)
[Sea-level pressure: 1019.3 mb]
Winds: from the W (260 degrees) at 23 MPH (20 knots; 10.4 m/s)
gusting to 47 MPH (41 knots; 21.3 m/s)
Visibility: 0.25 miles (0.40 km)
Ceiling: 700 feet AGL
Clouds: broken clouds at 700 feet AGL
broken clouds at 1900 feet AGL
overcast cloud deck at 5000 feet AGL
Present Weather: +TSRA FG  (heavy rain associated with thunderstorm(s), fog)
KMLB 221953Z 26020G41KT 1/4SM +TSRA FG BKN007 BKN019 OVC050 23/22 A3010 RMK AO2 PK WND 26042/1939 WSHFT 1925 LTG DSNT ALQDS RAB33 TSB31 SLP193 TS OVHD MOV LTL FREQ LTGICCCCG P0109 T02330217 RVRNO

Conditions at: KMLB observed 22 July 2017  19:47 UTC
Temperature: 25.0°C (77°F)
Dewpoint: 22.0°C (72°F) [RH = 83%]
Pressure (altimeter): 30.11 inches Hg (1019.7 mb)
Winds: missing
Visibility: 0.25 miles (0.40 km)
Ceiling: 1900 feet AGL
Clouds: scattered clouds at 900 feet AGL
broken clouds at 1900 feet AGL
overcast cloud deck at 7000 feet AGL
Present Weather: +TSRA  (heavy rain associated with thunderstorm(s))
KMLB 221947Z 1/4SM +TSRA SCT009 BKN019 OVC070 25/22 A3011 RMK AO2 PK WND 26042/1939 WSHFT 1925 LTG DSNT ALQDS RAB33 TSB31 TS OVHD MOV LTL FREQ LTGICCCCG P0071 RVRNO

Conditions at: KMLB observed 22 July 2017  19:40 UTC
Temperature: 26.1°C (79°F)
Dewpoint: 23.3°C (74°F) [RH = 85%]
Pressure (altimeter): 30.10 inches Hg (1019.4 mb)
Winds: from the W (260 degrees) at 29 MPH (25 knots; 13.0 m/s)
gusting to 48 MPH (42 knots; 21.8 m/s)
Visibility: 0.50 miles (0.80 km)
Ceiling: 5000 feet AGL
Clouds: few clouds at 1900 feet AGL
scattered clouds at 3900 feet AGL
broken clouds at 5000 feet AGL
Present Weather: +TSRA SQ  (heavy rain associated with thunderstorm(s), squal)
KMLB 221940Z 26025G42KT 230V300 1/2SM +TSRA SQ FEW019 SCT039 BKN050 26/23 A3010 RMK AO2 PK WND 26042/1939 WSHFT 1925 LTG DSNT ALQDS RAB33 TSB31 PRESRR P0020 T02610233 RVRNO

Conditions at: KMLB observed 22 July 2017  19:35 UTC
Temperature: 28.9°C (84°F)
Dewpoint: 24.4°C (76°F) [RH = 77%]
Pressure (altimeter): 30.06 inches Hg (1018.0 mb)
Winds: from the SSE (160 degrees) at 18 MPH (16 knots; 8.3 m/s)
gusting to 28 MPH (24 knots; 12.5 m/s)
Visibility: 1.00 miles (1.61 km)
Ceiling: 5000 feet AGL
Clouds: few clouds at 4200 feet AGL
broken clouds at 5000 feet AGL
broken clouds at 7000 feet AGL
Present Weather: +TSRA  (heavy rain associated with thunderstorm(s))
KMLB 221935Z 16016G24KT 140V200 1SM +TSRA FEW042 BKN050 BKN070 29/24 A3006 RMK AO2 LTG DSNT ALQDS RAB33 TSB31 P0004 T02890244 RVRNO

Conditions at: KMLB observed 22 July 2017  19:24 UTC
Temperature: 30.0°C (86°F)
Dewpoint: 23.9°C (75°F) [RH = 70%]
Pressure (altimeter): 30.04 inches Hg (1017.4 mb)
Winds: from the ESE (120 degrees) at 18 MPH (16 knots; 8.3 m/s)
gusting to 28 MPH (24 knots; 12.5 m/s)
Visibility: 10 or more miles (16+ km)
Ceiling: 6000 feet AGL
Clouds: few clouds at 4400 feet AGL
broken clouds at 6000 feet AGL
broken clouds at 10000 feet AGL
Present Weather: VCTS  (thunderstorm in vicinity)
KMLB 221924Z 12016G24KT 10SM VCTS FEW044 BKN060 BKN100 30/24 A3004 RMK AO2 LTG DSNT ALQDS T03000239

Conditions at: KMLB observed 22 July 2017  18:53 UTC
Temperature: 31.7°C (89°F)
Dewpoint: 25.0°C (77°F) [RH = 68%]
Pressure (altimeter): 30.04 inches Hg (1017.4 mb)
[Sea-level pressure: 1017.0 mb]
Winds: from the ESE (120 degrees) at 14 MPH (12 knots; 6.2 m/s)
Visibility: 10 or more miles (16+ km)
Ceiling: at least 12,000 feet AGL
Clouds: scattered clouds at 4700 feet AGL
scattered clouds at 6000 feet AGL
Present Weather: no significant weather observed at this time
KMLB 221853Z 12012KT 10SM SCT047 SCT060 32/25 A3004 RMK AO2 LTG DSNT ALQDS SLP170 T03170250

Conditions at: KMLB observed 22 July 2017  17:53 UTC
Temperature: 33.9°C (93°F)
Dewpoint: 22.2°C (72°F) [RH = 51%]
Pressure (altimeter): 30.07 inches Hg (1018.4 mb)
[Sea-level pressure: 1018.0 mb]
Winds: variable direction winds at 6 MPH (5 knots; 2.6 m/s)
gusting to 20 MPH (17 knots; 8.8 m/s)
Visibility: 10 or more miles (16+ km)
Ceiling: at least 12,000 feet AGL
Clouds: scattered clouds at 4300 feet AGL
Present Weather: no significant weather observed at this time
KMLB 221753Z VRB05G17KT 10SM SCT043 34/22 A3007 RMK AO2 SLP180 T03390222 10344 20250 58013

Conditions at: KMLB observed 22 July 2017  16:53 UTC
Temperature: 32.8°C (91°F)
Dewpoint: 22.8°C (73°F) [RH = 56%]
Pressure (altimeter): 30.08 inches Hg (1018.7 mb)
[Sea-level pressure: 1018.4 mb]
Winds: variable direction winds at 7 MPH (6 knots; 3.1 m/s)
Visibility: 10 or more miles (16+ km)
Ceiling: at least 12,000 feet AGL
Clouds: scattered clouds at 3000 feet AGL
Present Weather: no significant weather observed at this time
KMLB 221653Z VRB06KT 10SM SCT030 33/23 A3008 RMK AO2 SLP184 T03280228

Conditions at: KMLB observed 22 July 2017  15:53 UTC
Temperature: 31.7°C (89°F)
Dewpoint: 23.3°C (74°F) [RH = 61%]
Pressure (altimeter): 30.10 inches Hg (1019.4 mb)
[Sea-level pressure: 1019.1 mb]
Winds: from the SSW (200 degrees) at 7 MPH (6 knots; 3.1 m/s)
Visibility: 10 or more miles (16+ km)
Ceiling: 3200 feet AGL
Clouds: broken clouds at 3200 feet AGL
Present Weather: no significant weather observed at this time
KMLB 221553Z 20006KT 10SM BKN032 32/23 A3010 RMK AO2 SLP191 T03170233

Conditions at: KMLB observed 22 July 2017  14:53 UTC
Temperature: 30.6°C (87°F)
Dewpoint: 25.0°C (77°F) [RH = 72%]
Pressure (altimeter): 30.10 inches Hg (1019.4 mb)
[Sea-level pressure: 1019.3 mb]
Winds: from the SSW (210 degrees) at 5 MPH (4 knots; 2.1 m/s)
Visibility: 10 or more miles (16+ km)
Ceiling: at least 12,000 feet AGL
Clouds: few clouds at 2500 feet AGL
Present Weather: no significant weather observed at this time
KMLB 221453Z 21004KT 10SM FEW025 31/25 A3010 RMK AO2 SLP193 T03060250 50005

Conditions at: KMLB observed 22 July 2017  13:53 UTC
Temperature: 28.9°C (84°F)
Dewpoint: 25.0°C (77°F) [RH = 80%]
Pressure (altimeter): 30.11 inches Hg (1019.7 mb)
[Sea-level pressure: 1019.5 mb]
Winds: from the SSW (210 degrees) at 7 MPH (6 knots; 3.1 m/s)
Visibility: 10 or more miles (16+ km)
Ceiling: at least 12,000 feet AGL
Clouds: sky clear below 12,000 feet AGL
Present Weather: no significant weather observed at this time
KMLB 221353Z 21006KT 10SM CLR 29/25 A3011 RMK AO2 SLP195 T02890250

Conditions at: KMLB observed 22 July 2017  12:53 UTC
Temperature: 27.2°C (81°F)
Dewpoint: 24.4°C (76°F) [RH = 85%]
Pressure (altimeter): 30.10 inches Hg (1019.4 mb)
[Sea-level pressure: 1019.0 mb]
Winds: from the SSW (210 degrees) at 6 MPH (5 knots; 2.6 m/s)
Visibility: 10 or more miles (16+ km)
Ceiling: at least 12,000 feet AGL
Clouds: sky clear below 12,000 feet AGL
Present Weather: no significant weather observed at this time
KMLB 221253Z 21005KT 10SM CLR 27/24 A3010 RMK AO2 SLP190 T02720244

Conditions at: KMLB observed 22 July 2017  11:53 UTC
Temperature: 25.0°C (77°F)
Dewpoint: 23.9°C (75°F) [RH = 94%]
Pressure (altimeter): 30.09 inches Hg (1019.0 mb)
[Sea-level pressure: 1018.7 mb]
Winds: from the SW (220 degrees) at 5 MPH (4 knots; 2.1 m/s)
Visibility: 10 or more miles (16+ km)
Ceiling: at least 12,000 feet AGL
Clouds: sky clear below 12,000 feet AGL
Present Weather: no significant weather observed at this time
KMLB 221153Z 22004KT 10SM CLR 25/24 A3009 RMK AO2 SLP187 70002 T02500239 10250 20239 53017

Conditions at: KMLB observed 22 July 2017  10:53 UTC
Temperature: 23.9°C (75°F)
Dewpoint: 23.3°C (74°F) [RH = 96%]
Pressure (altimeter): 30.06 inches Hg (1018.0 mb)
[Sea-level pressure: 1017.9 mb]
Winds: from the S (180 degrees) at 5 MPH (4 knots; 2.1 m/s)
Visibility: 10 or more miles (16+ km)
Ceiling: at least 12,000 feet AGL
Clouds: sky clear below 12,000 feet AGL
Present Weather: no significant weather observed at this time
KMLB 221053Z 18004KT 10SM CLR 24/23 A3006 RMK AO2 SLP179 T02390233

Conditions at: KMLB observed 22 July 2017  09:53 UTC
Temperature: 23.9°C (75°F)
Dewpoint: 23.3°C (74°F) [RH = 96%]
Pressure (altimeter): 30.04 inches Hg (1017.4 mb)
[Sea-level pressure: 1017.3 mb]
Winds: from the S (180 degrees) at 6 MPH (5 knots; 2.6 m/s)
Visibility: 10 or more miles (16+ km)
Ceiling: at least 12,000 feet AGL
Clouds: sky clear below 12,000 feet AGL
Present Weather: automated observation with no human augmentation;
there may or may not be significant weather present at this time
KMLB 220953Z AUTO 18005KT 10SM CLR 24/23 A3004 RMK AO2 SLP173 T02390233

Conditions at: KMLB observed 22 July 2017  08:53 UTC
Temperature: 23.9°C (75°F)
Dewpoint: 23.3°C (74°F) [RH = 96%]
Pressure (altimeter): 30.04 inches Hg (1017.4 mb)
[Sea-level pressure: 1017.0 mb]
Winds: calm
Visibility: 10 or more miles (16+ km)
Ceiling: at least 12,000 feet AGL
Clouds: sky clear below 12,000 feet AGL
Present Weather: automated observation with no human augmentation;
there may or may not be significant weather present at this time
KMLB 220853Z AUTO 00000KT 10SM CLR 24/23 A3004 RMK AO2 SLP170 T02390233 55006